createdAt,value
2017-09-20T00:00:19.454Z,0.00
2017-09-20T00:01:19.448Z,0.00
2017-09-20T00:02:19.445Z,0.00
2017-09-20T00:03:19.440Z,0.00
2017-09-20T00:04:19.437Z,0.00
2017-09-20T00:05:19.432Z,0.00
2017-09-20T00:06:19.424Z,0.00
2017-09-20T00:07:19.419Z,0.00
2017-09-20T00:08:19.415Z,0.00
2017-09-20T00:09:19.411Z,0.00
2017-09-20T00:10:19.407Z,0.00
2017-09-20T00:11:19.403Z,0.00
2017-09-20T00:12:19.398Z,0.00
2017-09-20T00:13:19.394Z,0.00
2017-09-20T00:14:19.394Z,0.00
2017-09-20T00:15:19.417Z,0.00
2017-09-20T00:16:19.385Z,0.00
2017-09-20T00:17:19.381Z,0.00
2017-09-20T00:18:19.373Z,0.00
2017-09-20T00:19:19.367Z,0.00
2017-09-20T00:20:19.365Z,0.00
2017-09-20T00:21:19.360Z,0.00
2017-09-20T00:22:19.360Z,0.00
2017-09-20T00:23:19.356Z,0.00
2017-09-20T00:24:19.352Z,0.00
2017-09-20T00:25:19.349Z,0.00
2017-09-20T00:26:19.344Z,0.00
2017-09-20T00:27:19.338Z,0.00
2017-09-20T00:28:19.340Z,0.00
2017-09-20T00:29:19.332Z,0.00
2017-09-20T00:30:19.324Z,0.00
2017-09-20T00:31:19.319Z,0.00
2017-09-20T00:32:19.315Z,0.00
2017-09-20T00:33:19.310Z,0.00
2017-09-20T00:34:19.307Z,0.00
2017-09-20T00:35:19.303Z,0.00
2017-09-20T00:36:19.297Z,0.00
2017-09-20T00:37:19.294Z,0.00
2017-09-20T00:38:19.295Z,0.00
2017-09-20T00:39:19.291Z,0.00
2017-09-20T00:40:19.286Z,0.00
2017-09-20T00:41:19.282Z,0.00
2017-09-20T00:42:19.279Z,0.00
2017-09-20T00:43:19.274Z,0.00
2017-09-20T00:44:19.269Z,0.00
2017-09-20T00:45:19.267Z,0.00
2017-09-20T00:46:19.261Z,0.00
2017-09-20T00:47:19.254Z,0.00
2017-09-20T00:48:19.250Z,0.00
2017-09-20T00:49:19.246Z,0.00
2017-09-20T00:50:19.242Z,0.00
2017-09-20T00:51:19.238Z,0.00
2017-09-20T00:52:19.234Z,0.00
2017-09-20T00:53:19.229Z,0.00
2017-09-20T00:54:19.229Z,0.00
2017-09-20T00:55:19.224Z,0.00
2017-09-20T00:56:19.221Z,0.00
2017-09-20T00:57:19.241Z,0.00
2017-09-20T00:58:19.212Z,0.00
2017-09-20T00:59:19.208Z,0.00
2017-09-20T01:00:19.205Z,0.00
2017-09-20T01:01:19.201Z,0.00
2017-09-20T01:02:19.192Z,0.00
2017-09-20T01:03:19.186Z,0.00
2017-09-20T01:04:19.183Z,0.00
2017-09-20T01:05:19.179Z,0.00
2017-09-20T01:06:19.175Z,0.00
2017-09-20T01:07:19.172Z,0.00
2017-09-20T01:08:19.165Z,0.00
2017-09-20T01:09:19.162Z,0.00
2017-09-20T01:10:19.160Z,0.00
2017-09-20T01:11:19.156Z,0.00
2017-09-20T01:12:19.153Z,0.00
2017-09-20T01:13:19.147Z,0.00
2017-09-20T01:14:19.145Z,0.00
2017-09-20T01:15:19.137Z,0.00
2017-09-20T01:16:19.134Z,0.00
2017-09-20T01:17:19.129Z,0.00
2017-09-20T01:18:19.122Z,0.00
2017-09-20T01:19:19.120Z,0.00
2017-09-20T01:20:19.113Z,0.00
2017-09-20T01:21:19.111Z,0.00
2017-09-20T01:22:19.108Z,0.00
2017-09-20T01:23:19.103Z,0.00
2017-09-20T01:24:19.098Z,0.00
2017-09-20T01:25:19.093Z,0.00
2017-09-20T01:26:19.086Z,0.00
2017-09-20T01:27:19.081Z,0.00
2017-09-20T01:28:19.075Z,0.00
2017-09-20T01:29:19.071Z,0.00
2017-09-20T01:30:19.070Z,0.00
2017-09-20T01:31:19.062Z,0.00
2017-09-20T01:32:19.058Z,0.00
2017-09-20T01:33:19.054Z,0.00
2017-09-20T01:34:19.053Z,0.00
2017-09-20T01:35:19.049Z,0.00
2017-09-20T01:36:19.044Z,0.00
2017-09-20T01:37:19.040Z,0.00
2017-09-20T01:38:19.035Z,0.00
2017-09-20T01:39:19.030Z,0.00
2017-09-20T01:40:19.025Z,0.00
2017-09-20T01:41:19.020Z,0.00
2017-09-20T01:42:19.013Z,0.00
2017-09-20T01:43:19.008Z,0.00
2017-09-20T01:44:19.004Z,0.00
2017-09-20T01:45:18.999Z,0.00
2017-09-20T01:46:18.999Z,0.00
2017-09-20T01:47:18.989Z,0.00
2017-09-20T01:48:18.986Z,0.00
2017-09-20T01:49:19.015Z,0.00
2017-09-20T01:50:18.980Z,0.00
2017-09-20T01:51:18.981Z,0.00
2017-09-20T01:52:18.971Z,0.00
2017-09-20T01:53:18.967Z,0.00
2017-09-20T01:54:18.962Z,0.00
2017-09-20T01:55:18.958Z,0.00
2017-09-20T01:56:18.952Z,0.00
2017-09-20T01:57:18.951Z,0.00
2017-09-20T01:58:18.940Z,0.00
2017-09-20T01:59:18.935Z,0.00
2017-09-20T02:00:18.937Z,0.00
2017-09-20T02:01:18.926Z,0.00
2017-09-20T02:02:18.922Z,0.00
2017-09-20T02:03:18.924Z,0.00
2017-09-20T02:04:18.914Z,0.00
2017-09-20T02:05:18.909Z,0.00
2017-09-20T02:06:18.910Z,0.00
2017-09-20T02:07:18.904Z,0.00
2017-09-20T02:08:18.901Z,0.00
2017-09-20T02:09:18.896Z,0.00
2017-09-20T02:10:18.897Z,0.00
2017-09-20T02:11:18.886Z,0.00
2017-09-20T02:12:18.882Z,0.00
2017-09-20T02:13:18.878Z,0.00
2017-09-20T02:14:18.869Z,0.00
2017-09-20T02:15:18.865Z,0.00
2017-09-20T02:16:18.860Z,0.00
2017-09-20T02:17:18.856Z,0.00
2017-09-20T02:18:18.852Z,0.00
2017-09-20T02:19:18.847Z,0.00
2017-09-20T02:20:18.843Z,0.00
2017-09-20T02:21:18.841Z,0.00
2017-09-20T02:22:18.838Z,0.00
2017-09-20T02:23:18.833Z,0.00
2017-09-20T02:24:18.829Z,0.00
2017-09-20T02:25:18.824Z,0.00
2017-09-20T02:26:18.816Z,0.00
2017-09-20T02:27:18.811Z,0.00
2017-09-20T02:28:18.805Z,0.00
2017-09-20T02:29:18.802Z,0.00
2017-09-20T02:30:18.806Z,0.00
2017-09-20T02:31:18.797Z,0.00
2017-09-20T02:32:18.793Z,0.00
2017-09-20T02:33:18.790Z,0.00
2017-09-20T02:34:18.785Z,0.00
2017-09-20T02:35:18.779Z,0.00
2017-09-20T02:36:18.775Z,0.00
2017-09-20T02:37:18.771Z,0.00
2017-09-20T02:38:18.763Z,0.00
2017-09-20T02:39:18.757Z,0.00
2017-09-20T02:40:18.756Z,0.00
2017-09-20T02:41:18.749Z,0.00
2017-09-20T02:42:18.745Z,0.00
2017-09-20T02:43:18.742Z,0.00
2017-09-20T02:44:18.735Z,0.00
2017-09-20T02:45:18.731Z,0.00
2017-09-20T02:46:18.733Z,0.00
2017-09-20T02:47:18.733Z,0.00
2017-09-20T02:48:18.726Z,0.00
2017-09-20T02:49:18.721Z,0.00
2017-09-20T02:50:18.712Z,0.00
2017-09-20T02:51:18.710Z,0.00
2017-09-20T02:52:18.713Z,0.00
2017-09-20T02:53:18.699Z,0.00
2017-09-20T02:54:18.692Z,0.00
2017-09-20T02:55:18.685Z,0.00
2017-09-20T02:56:18.682Z,0.00
2017-09-20T02:57:18.680Z,0.00
2017-09-20T02:58:18.674Z,0.00
2017-09-20T02:59:18.668Z,0.00
2017-09-20T03:00:18.664Z,0.00
2017-09-20T03:01:18.659Z,0.00
2017-09-20T03:02:18.663Z,0.00
2017-09-20T03:03:18.655Z,0.00
2017-09-20T03:04:18.651Z,0.00
2017-09-20T03:05:18.648Z,0.00
2017-09-20T03:06:18.643Z,0.00
2017-09-20T03:07:18.638Z,0.00
2017-09-20T03:08:18.634Z,0.00
2017-09-20T03:09:18.631Z,0.00
2017-09-20T03:10:18.621Z,0.00
2017-09-20T03:11:18.617Z,0.00
2017-09-20T03:12:18.615Z,0.00
2017-09-20T03:13:18.608Z,0.00
2017-09-20T03:14:18.605Z,0.00
2017-09-20T03:15:18.600Z,0.00
2017-09-20T03:16:18.596Z,0.00
2017-09-20T03:17:18.591Z,0.00
2017-09-20T03:18:18.591Z,0.00
2017-09-20T03:19:18.586Z,0.00
2017-09-20T03:20:18.583Z,0.00
2017-09-20T03:21:18.578Z,0.00
2017-09-20T03:22:18.574Z,0.00
2017-09-20T03:23:18.570Z,0.00
2017-09-20T03:24:18.566Z,0.00
2017-09-20T03:25:18.562Z,0.00
2017-09-20T03:26:18.555Z,0.00
2017-09-20T03:27:18.549Z,0.00
2017-09-20T03:28:18.544Z,0.00
2017-09-20T03:29:18.541Z,0.00
2017-09-20T03:30:18.542Z,0.00
2017-09-20T03:31:18.536Z,0.00
2017-09-20T03:32:18.531Z,0.00
2017-09-20T03:33:18.531Z,0.00
2017-09-20T03:34:18.520Z,0.00
2017-09-20T03:35:18.514Z,0.00
2017-09-20T03:36:18.510Z,0.00
2017-09-20T03:37:18.506Z,0.00
2017-09-20T03:38:18.506Z,0.00
2017-09-20T03:39:18.497Z,0.00
2017-09-20T03:40:18.493Z,0.00
2017-09-20T03:41:18.490Z,0.00
2017-09-20T03:42:18.491Z,0.00
2017-09-20T03:43:18.484Z,0.00
2017-09-20T03:44:18.480Z,0.00
2017-09-20T03:45:18.475Z,0.00
2017-09-20T03:46:18.473Z,0.00
2017-09-20T03:47:18.467Z,0.00
2017-09-20T03:48:18.464Z,0.00
2017-09-20T03:49:18.458Z,0.00
2017-09-20T03:50:18.451Z,0.00
2017-09-20T03:51:18.446Z,0.00
2017-09-20T03:52:18.441Z,0.00
2017-09-20T03:53:18.437Z,0.00
2017-09-20T03:54:18.433Z,0.00
2017-09-20T03:55:18.429Z,0.00
2017-09-20T03:56:18.425Z,0.00
2017-09-20T03:57:18.421Z,0.00
2017-09-20T03:58:18.428Z,0.00
2017-09-20T03:59:18.416Z,0.00
2017-09-20T04:00:18.414Z,0.00
2017-09-20T04:01:18.412Z,0.00
2017-09-20T04:02:18.405Z,0.00
2017-09-20T04:03:18.398Z,0.00
2017-09-20T04:04:18.395Z,0.00
2017-09-20T04:05:18.392Z,0.00
2017-09-20T04:06:18.383Z,0.00
2017-09-20T04:07:18.378Z,0.00
2017-09-20T04:08:18.376Z,0.00
2017-09-20T04:09:18.371Z,0.00
2017-09-20T04:10:18.368Z,0.00
2017-09-20T04:11:18.362Z,0.00
2017-09-20T04:12:18.357Z,0.00
2017-09-20T04:13:18.355Z,0.00
2017-09-20T04:14:18.354Z,0.00
2017-09-20T04:15:18.349Z,0.00
2017-09-20T04:16:18.343Z,0.00
2017-09-20T04:17:18.340Z,0.00
2017-09-20T04:18:18.336Z,0.00
2017-09-20T04:19:18.332Z,0.00
2017-09-20T04:20:18.327Z,0.00
2017-09-20T04:21:18.323Z,0.00
2017-09-20T04:22:18.315Z,0.00
2017-09-20T04:23:18.316Z,0.00
2017-09-20T04:24:18.305Z,0.00
2017-09-20T04:25:18.301Z,0.00
2017-09-20T04:26:18.297Z,0.00
2017-09-20T04:27:18.292Z,0.00
2017-09-20T04:28:18.288Z,0.00
2017-09-20T04:29:18.284Z,0.00
2017-09-20T04:30:18.284Z,0.00
2017-09-20T04:31:18.278Z,0.00
2017-09-20T04:32:18.274Z,0.00
2017-09-20T04:33:18.270Z,0.00
2017-09-20T04:34:18.264Z,0.00
2017-09-20T04:35:18.262Z,0.00
2017-09-20T04:36:18.255Z,0.00
2017-09-20T04:37:18.251Z,0.00
2017-09-20T04:38:18.243Z,0.00
2017-09-20T04:39:18.236Z,0.00
2017-09-20T04:40:18.236Z,0.00
2017-09-20T04:41:18.229Z,0.00
2017-09-20T04:42:18.223Z,0.00
2017-09-20T04:43:18.218Z,0.00
2017-09-20T04:44:18.214Z,0.00
2017-09-20T04:45:18.211Z,0.00
2017-09-20T04:46:18.209Z,0.00
2017-09-20T04:47:18.203Z,0.00
2017-09-20T04:48:18.200Z,0.00
2017-09-20T04:49:18.195Z,0.00
2017-09-20T04:50:18.191Z,0.00
2017-09-20T04:51:18.186Z,4.00
2017-09-20T04:52:18.181Z,4.00
2017-09-20T04:53:18.176Z,4.00
2017-09-20T04:54:18.169Z,4.00
2017-09-20T04:55:18.163Z,4.00
2017-09-20T04:56:18.159Z,8.00
2017-09-20T04:57:18.154Z,8.00
2017-09-20T04:58:18.151Z,8.00
2017-09-20T04:59:18.145Z,12.00
2017-09-20T05:00:18.158Z,12.00
2017-09-20T05:01:18.135Z,16.00
2017-09-20T05:02:18.137Z,20.00
2017-09-20T05:03:18.130Z,20.00
2017-09-20T05:04:18.125Z,24.00
2017-09-20T05:05:18.121Z,28.00
2017-09-20T05:06:18.117Z,32.00
2017-09-20T05:07:18.111Z,40.00
2017-09-20T05:08:18.108Z,44.00
2017-09-20T05:09:18.103Z,52.00
2017-09-20T05:10:18.095Z,64.00
2017-09-20T05:11:18.090Z,76.00
2017-09-20T05:12:18.089Z,88.00
2017-09-20T05:13:18.080Z,96.00
2017-09-20T05:14:18.079Z,104.00
2017-09-20T05:15:18.070Z,104.00
2017-09-20T05:16:18.067Z,96.00
2017-09-20T05:17:18.062Z,88.00
2017-09-20T05:18:18.063Z,96.00
2017-09-20T05:19:18.058Z,104.00
2017-09-20T05:20:18.051Z,112.00
2017-09-20T05:21:18.054Z,120.00
2017-09-20T05:22:18.045Z,132.00
2017-09-20T05:23:18.040Z,128.00
2017-09-20T05:24:18.036Z,128.00
2017-09-20T05:25:18.030Z,144.00
2017-09-20T05:26:18.022Z,176.00
2017-09-20T05:27:18.017Z,196.00
2017-09-20T05:28:18.014Z,200.00
2017-09-20T05:29:18.009Z,200.00
2017-09-20T05:30:18.006Z,204.00
2017-09-20T05:31:18.000Z,212.00
2017-09-20T05:32:17.996Z,232.00
2017-09-20T05:33:17.992Z,248.00
2017-09-20T05:34:17.992Z,272.00
2017-09-20T05:35:17.986Z,276.00
2017-09-20T05:36:17.982Z,272.00
2017-09-20T05:37:17.978Z,268.00
2017-09-20T05:38:17.976Z,252.00
2017-09-20T05:39:17.967Z,256.00
2017-09-20T05:40:17.961Z,296.00
2017-09-20T05:41:17.958Z,360.00
2017-09-20T05:42:17.960Z,388.00
2017-09-20T05:43:17.953Z,392.00
2017-09-20T05:44:17.949Z,416.00
2017-09-20T05:45:17.945Z,404.00
2017-09-20T05:46:17.941Z,384.00
2017-09-20T05:47:17.935Z,428.00
2017-09-20T05:48:17.931Z,484.00
2017-09-20T05:49:17.929Z,484.00
2017-09-20T05:50:17.920Z,420.00
2017-09-20T05:51:17.915Z,392.00
2017-09-20T05:52:17.912Z,360.00
2017-09-20T05:53:17.907Z,348.00
2017-09-20T05:54:17.906Z,348.00
2017-09-20T05:55:17.898Z,364.00
2017-09-20T05:56:17.894Z,400.00
2017-09-20T05:57:17.889Z,452.00
2017-09-20T05:58:17.889Z,564.00
2017-09-20T05:59:17.916Z,716.00
2017-09-20T06:00:17.888Z,736.00
2017-09-20T06:01:17.876Z,748.00
2017-09-20T06:02:17.873Z,740.00
2017-09-20T06:03:17.868Z,612.00
2017-09-20T06:04:17.864Z,492.00
2017-09-20T06:05:17.860Z,524.00
2017-09-20T06:06:17.852Z,596.00
2017-09-20T06:07:17.848Z,644.00
2017-09-20T06:08:17.842Z,620.00
2017-09-20T06:09:17.839Z,584.00
2017-09-20T06:10:17.834Z,596.00
2017-09-20T06:11:17.831Z,728.00
2017-09-20T06:12:17.827Z,844.00
2017-09-20T06:13:17.823Z,860.00
2017-09-20T06:14:17.824Z,748.00
2017-09-20T06:15:17.818Z,692.00
2017-09-20T06:16:17.813Z,700.00
2017-09-20T06:17:17.811Z,560.00
2017-09-20T06:18:17.807Z,496.00
2017-09-20T06:19:17.803Z,544.00
2017-09-20T06:20:17.801Z,652.00
2017-09-20T06:21:17.796Z,732.00
2017-09-20T06:22:17.788Z,892.00
2017-09-20T06:23:17.783Z,1064.00
2017-09-20T06:24:17.781Z,1136.00
2017-09-20T06:25:17.776Z,1116.00
2017-09-20T06:26:17.772Z,1016.00
2017-09-20T06:27:17.768Z,880.00
2017-09-20T06:28:17.765Z,816.00
2017-09-20T06:29:17.761Z,784.00
2017-09-20T06:30:17.762Z,824.00
2017-09-20T06:31:17.760Z,740.00
2017-09-20T06:32:17.753Z,716.00
2017-09-20T06:33:17.748Z,700.00
2017-09-20T06:34:17.745Z,656.00
2017-09-20T06:35:17.742Z,584.00
2017-09-20T06:36:17.736Z,400.00
2017-09-20T06:37:17.734Z,312.00
2017-09-20T06:38:17.726Z,340.00
2017-09-20T06:39:17.722Z,396.00
2017-09-20T06:40:17.717Z,388.00
2017-09-20T06:41:17.714Z,420.00
2017-09-20T06:42:17.715Z,628.00
2017-09-20T06:43:17.710Z,932.00
2017-09-20T06:44:17.707Z,1228.00
2017-09-20T06:45:17.703Z,1368.00
2017-09-20T06:46:17.695Z,1568.00
2017-09-20T06:47:17.690Z,1600.00
2017-09-20T06:48:17.689Z,1384.00
2017-09-20T06:49:17.683Z,1268.00
2017-09-20T06:50:17.679Z,1308.00
2017-09-20T06:51:17.674Z,1264.00
2017-09-20T06:52:17.671Z,1356.00
2017-09-20T06:53:17.666Z,1564.00
2017-09-20T06:54:17.668Z,1948.00
2017-09-20T06:55:17.663Z,2084.00
2017-09-20T06:56:17.659Z,1908.00
2017-09-20T06:57:17.656Z,1924.00
2017-09-20T06:58:17.652Z,2240.00
2017-09-20T06:59:17.649Z,2488.00
2017-09-20T07:00:17.644Z,2548.00
2017-09-20T07:01:17.641Z,2704.00
2017-09-20T07:02:17.633Z,2820.00
2017-09-20T07:03:17.628Z,2560.00
2017-09-20T07:04:17.626Z,2132.00
2017-09-20T07:05:17.621Z,1820.00
2017-09-20T07:06:17.616Z,1456.00
2017-09-20T07:07:17.613Z,1248.00
2017-09-20T07:08:17.609Z,1384.00
2017-09-20T07:09:17.606Z,1372.00
2017-09-20T07:10:17.606Z,1388.00
2017-09-20T07:11:17.601Z,1420.00
2017-09-20T07:12:17.598Z,1384.00
2017-09-20T07:13:17.594Z,1360.00
2017-09-20T07:14:17.590Z,1236.00
2017-09-20T07:15:17.587Z,1400.00
2017-09-20T07:16:17.584Z,1392.00
2017-09-20T07:17:17.582Z,1624.00
2017-09-20T07:18:17.572Z,1776.00
2017-09-20T07:19:17.567Z,2340.00
2017-09-20T07:20:17.565Z,2448.00
2017-09-20T07:21:17.561Z,3328.00
2017-09-20T07:22:17.558Z,3804.00
2017-09-20T07:23:17.553Z,4416.00
2017-09-20T07:24:17.550Z,4060.00
2017-09-20T07:25:17.552Z,4236.00
2017-09-20T07:26:17.554Z,4484.00
2017-09-20T07:27:17.542Z,4076.00
2017-09-20T07:28:17.540Z,3712.00
2017-09-20T07:29:17.537Z,4000.00
2017-09-20T07:30:17.534Z,4456.00
2017-09-20T07:31:17.530Z,4688.00
2017-09-20T07:32:17.529Z,4400.00
2017-09-20T07:33:17.524Z,4080.00
2017-09-20T07:34:17.517Z,4820.00
2017-09-20T07:35:17.514Z,5140.00
2017-09-20T07:36:17.510Z,5172.00
2017-09-20T07:37:17.507Z,6176.00
2017-09-20T07:38:17.505Z,6668.00
2017-09-20T07:39:17.500Z,6400.00
2017-09-20T07:40:17.496Z,6032.00
2017-09-20T07:41:17.493Z,4916.00
2017-09-20T07:42:17.496Z,3760.00
2017-09-20T07:43:17.492Z,3516.00
2017-09-20T07:44:17.489Z,3544.00
2017-09-20T07:45:17.486Z,3720.00
2017-09-20T07:46:17.480Z,4456.00
2017-09-20T07:47:17.496Z,5068.00
2017-09-20T07:48:17.474Z,5096.00
2017-09-20T07:49:17.473Z,6396.00
2017-09-20T07:50:17.473Z,7680.00
2017-09-20T07:51:17.471Z,7800.00
2017-09-20T07:52:17.468Z,8256.00
2017-09-20T07:53:17.467Z,8908.00
2017-09-20T07:54:17.464Z,8428.00
2017-09-20T07:55:17.461Z,8552.00
2017-09-20T07:56:17.459Z,8528.00
2017-09-20T07:57:17.456Z,8436.00
2017-09-20T07:58:17.450Z,8728.00
2017-09-20T07:59:17.448Z,7544.00
2017-09-20T08:00:17.446Z,5892.00
2017-09-20T08:01:17.444Z,5308.00
2017-09-20T08:02:17.442Z,5544.00
2017-09-20T08:03:17.440Z,5820.00
2017-09-20T08:04:17.438Z,6184.00
2017-09-20T08:05:17.437Z,6636.00
2017-09-20T08:06:17.439Z,7004.00
2017-09-20T08:07:17.437Z,7604.00
2017-09-20T08:08:17.435Z,9016.00
2017-09-20T08:09:17.433Z,10248.00
2017-09-20T08:10:17.431Z,10244.00
2017-09-20T08:11:17.430Z,7724.00
2017-09-20T08:12:17.428Z,6844.00
2017-09-20T08:13:17.428Z,5788.00
2017-09-20T08:14:17.423Z,5412.00
2017-09-20T08:15:17.426Z,4956.00
2017-09-20T08:16:17.419Z,6620.00
2017-09-20T08:17:17.417Z,6700.00
2017-09-20T08:18:17.418Z,5896.00
2017-09-20T08:19:17.415Z,6020.00
2017-09-20T08:20:17.413Z,7620.00
2017-09-20T08:21:17.413Z,14088.00
2017-09-20T08:22:17.417Z,13688.00
2017-09-20T08:23:17.415Z,13032.00
2017-09-20T08:24:17.414Z,12432.00
2017-09-20T08:25:17.412Z,10580.00
2017-09-20T08:26:17.411Z,7860.00
2017-09-20T08:27:17.411Z,5556.00
2017-09-20T08:28:17.411Z,6864.00
2017-09-20T08:29:17.408Z,6404.00
2017-09-20T08:30:17.405Z,5660.00
2017-09-20T08:31:17.404Z,8044.00
2017-09-20T08:32:17.404Z,9440.00
2017-09-20T08:33:17.403Z,12588.00
2017-09-20T08:34:17.404Z,15780.00
2017-09-20T08:35:17.403Z,11476.00
2017-09-20T08:36:17.402Z,8420.00
2017-09-20T08:37:17.403Z,6872.00
2017-09-20T08:38:17.406Z,7248.00
2017-09-20T08:39:17.406Z,8420.00
2017-09-20T08:40:17.416Z,10356.00
2017-09-20T08:41:17.451Z,14204.00
2017-09-20T08:42:17.407Z,18240.00
2017-09-20T08:43:17.408Z,25216.00
2017-09-20T08:44:17.408Z,28512.00
2017-09-20T08:45:17.409Z,15572.00
2017-09-20T08:46:17.404Z,12436.00
2017-09-20T08:47:17.405Z,14580.00
2017-09-20T08:48:17.407Z,17888.00
2017-09-20T08:49:17.408Z,18880.00
2017-09-20T08:50:17.410Z,21312.00
2017-09-20T08:51:17.411Z,18400.00
2017-09-20T08:52:17.413Z,14076.00
2017-09-20T08:53:17.416Z,11824.00
2017-09-20T08:54:17.423Z,11044.00
2017-09-20T08:55:17.424Z,10864.00
2017-09-20T08:56:17.427Z,11152.00
2017-09-20T08:57:17.428Z,11456.00
2017-09-20T08:58:17.434Z,11376.00
2017-09-20T08:59:17.432Z,10800.00
2017-09-20T09:00:17.436Z,9336.00
2017-09-20T09:01:17.439Z,6436.00
2017-09-20T09:02:17.435Z,4536.00
2017-09-20T09:03:17.437Z,4948.00
2017-09-20T09:04:17.440Z,7296.00
2017-09-20T09:05:17.443Z,10748.00
2017-09-20T09:06:17.445Z,11172.00
2017-09-20T09:07:17.447Z,10328.00
2017-09-20T09:08:17.451Z,12092.00
2017-09-20T09:09:17.451Z,13952.00
2017-09-20T09:10:17.459Z,16864.00
2017-09-20T09:11:17.458Z,14684.00
2017-09-20T09:12:17.460Z,13820.00
2017-09-20T09:13:17.462Z,15124.00
2017-09-20T09:14:17.464Z,15712.00
2017-09-20T09:15:17.466Z,16576.00
2017-09-20T09:16:17.469Z,15604.00
2017-09-20T09:17:17.472Z,14212.00
2017-09-20T09:18:17.485Z,13384.00
2017-09-20T09:19:17.470Z,13184.00
2017-09-20T09:20:17.474Z,12420.00
2017-09-20T09:21:17.474Z,12172.00
2017-09-20T09:22:17.480Z,9488.00
2017-09-20T09:23:17.479Z,9400.00
2017-09-20T09:24:17.487Z,12120.00
2017-09-20T09:25:17.483Z,10908.00
2017-09-20T09:26:17.490Z,10324.00
2017-09-20T09:27:17.490Z,9056.00
2017-09-20T09:28:17.493Z,7336.00
2017-09-20T09:29:17.496Z,7916.00
2017-09-20T09:30:17.497Z,11012.00
2017-09-20T09:31:17.499Z,13188.00
2017-09-20T09:32:17.502Z,13292.00
2017-09-20T09:33:17.502Z,11720.00
2017-09-20T09:34:17.501Z,10220.00
2017-09-20T09:35:17.501Z,8508.00
2017-09-20T09:36:17.504Z,8444.00
2017-09-20T09:37:17.506Z,8428.00
2017-09-20T09:38:17.509Z,9900.00
2017-09-20T09:39:17.510Z,13316.00
2017-09-20T09:40:17.513Z,16320.00
2017-09-20T09:41:17.512Z,18848.00
2017-09-20T09:42:17.520Z,18848.00
2017-09-20T09:43:17.520Z,21632.00
2017-09-20T09:44:17.525Z,19040.00
2017-09-20T09:45:17.527Z,19488.00
2017-09-20T09:46:17.535Z,13300.00
2017-09-20T09:47:17.529Z,12196.00
2017-09-20T09:48:17.554Z,14948.00
2017-09-20T09:49:17.535Z,19072.00
2017-09-20T09:50:17.534Z,28992.00
2017-09-20T09:51:17.553Z,21216.00
2017-09-20T09:52:17.544Z,17152.00
2017-09-20T09:53:17.543Z,12720.00
2017-09-20T09:54:17.551Z,10396.00
2017-09-20T09:55:17.552Z,9728.00
2017-09-20T09:56:17.565Z,9720.00
2017-09-20T09:57:17.561Z,9852.00
2017-09-20T09:58:17.561Z,8772.00
2017-09-20T09:59:17.565Z,5448.00
2017-09-20T10:00:17.566Z,3576.00
2017-09-20T10:01:17.571Z,2988.00
2017-09-20T10:02:17.575Z,3528.00
2017-09-20T10:03:17.578Z,3852.00
2017-09-20T10:04:17.584Z,3680.00
2017-09-20T10:05:17.585Z,3308.00
2017-09-20T10:06:17.594Z,3008.00
2017-09-20T10:07:17.595Z,3324.00
2017-09-20T10:08:17.598Z,3712.00
2017-09-20T10:09:17.601Z,4008.00
2017-09-20T10:10:17.604Z,4492.00
2017-09-20T10:11:17.607Z,4532.00
2017-09-20T10:12:17.608Z,5164.00
2017-09-20T10:13:17.612Z,7392.00
2017-09-20T10:14:17.610Z,8168.00
2017-09-20T10:15:17.610Z,9088.00
2017-09-20T10:16:17.614Z,10792.00
2017-09-20T10:17:17.616Z,12620.00
2017-09-20T10:18:17.618Z,25216.00
2017-09-20T10:19:17.621Z,17120.00
2017-09-20T10:20:17.621Z,18592.00
2017-09-20T10:21:17.624Z,16384.00
2017-09-20T10:22:17.630Z,14240.00
2017-09-20T10:23:17.630Z,12800.00
2017-09-20T10:24:17.635Z,11416.00
2017-09-20T10:25:17.635Z,10160.00
2017-09-20T10:26:17.653Z,10060.00
2017-09-20T10:27:17.640Z,12700.00
2017-09-20T10:28:17.643Z,12640.00
2017-09-20T10:29:17.646Z,10268.00
2017-09-20T10:30:17.644Z,8884.00
2017-09-20T10:31:17.646Z,9604.00
2017-09-20T10:32:17.652Z,10852.00
2017-09-20T10:33:17.650Z,10996.00
2017-09-20T10:34:17.654Z,10168.00
2017-09-20T10:35:17.656Z,12212.00
2017-09-20T10:36:17.664Z,12328.00
2017-09-20T10:37:17.661Z,12456.00
2017-09-20T10:38:17.668Z,11796.00
2017-09-20T10:39:17.669Z,11544.00
2017-09-20T10:40:17.677Z,11892.00
2017-09-20T10:41:17.674Z,11584.00
2017-09-20T10:42:17.677Z,11252.00
2017-09-20T10:43:17.678Z,11632.00
2017-09-20T10:44:17.683Z,11936.00
2017-09-20T10:45:17.682Z,11792.00
2017-09-20T10:46:17.682Z,12040.00
2017-09-20T10:47:17.683Z,12832.00
2017-09-20T10:48:17.685Z,14716.00
2017-09-20T10:49:17.688Z,17664.00
2017-09-20T10:50:17.691Z,22112.00
2017-09-20T10:51:17.692Z,21472.00
2017-09-20T10:52:17.695Z,21440.00
2017-09-20T10:53:17.697Z,21792.00
2017-09-20T10:54:17.706Z,29312.00
2017-09-20T10:55:17.707Z,20512.00
2017-09-20T10:56:17.709Z,15752.00
2017-09-20T10:57:17.714Z,13636.00
2017-09-20T10:58:17.713Z,11012.00
2017-09-20T10:59:17.717Z,13452.00
2017-09-20T11:00:17.719Z,13804.00
2017-09-20T11:01:17.722Z,21888.00
2017-09-20T11:02:17.733Z,19072.00
2017-09-20T11:03:17.734Z,15700.00
2017-09-20T11:04:17.739Z,17216.00
2017-09-20T11:05:17.744Z,22304.00
2017-09-20T11:06:17.747Z,16672.00
2017-09-20T11:07:17.750Z,30048.00
2017-09-20T11:08:17.756Z,19808.00
2017-09-20T11:09:17.763Z,20896.00
2017-09-20T11:10:17.761Z,17280.00
2017-09-20T11:11:17.765Z,15960.00
2017-09-20T11:12:17.770Z,14948.00
2017-09-20T11:13:17.774Z,31136.00
2017-09-20T11:14:17.780Z,30816.00
2017-09-20T11:15:17.784Z,32992.00
2017-09-20T11:16:17.790Z,14104.00
2017-09-20T11:17:17.798Z,13420.00
2017-09-20T11:18:17.806Z,13340.00
2017-09-20T11:19:17.816Z,15380.00
2017-09-20T11:20:17.817Z,17248.00
2017-09-20T11:21:17.822Z,18016.00
2017-09-20T11:22:17.828Z,14608.00
2017-09-20T11:23:17.833Z,13748.00
2017-09-20T11:24:17.840Z,14172.00
2017-09-20T11:25:17.847Z,11880.00
2017-09-20T11:26:17.848Z,11272.00
2017-09-20T11:27:17.853Z,11128.00
2017-09-20T11:28:17.860Z,11832.00
2017-09-20T11:29:17.866Z,12740.00
2017-09-20T11:30:17.870Z,11616.00
2017-09-20T11:31:17.874Z,10968.00
2017-09-20T11:32:17.881Z,9916.00
2017-09-20T11:33:17.917Z,8872.00
2017-09-20T11:34:17.895Z,9428.00
2017-09-20T11:35:17.902Z,8664.00
2017-09-20T11:36:17.907Z,7248.00
2017-09-20T11:37:17.912Z,7716.00
2017-09-20T11:38:17.918Z,7988.00
2017-09-20T11:39:17.921Z,9040.00
2017-09-20T11:40:17.927Z,10020.00
2017-09-20T11:41:17.930Z,9912.00
2017-09-20T11:42:17.930Z,11120.00
2017-09-20T11:43:17.935Z,11256.00
2017-09-20T11:44:17.940Z,10148.00
2017-09-20T11:45:17.972Z,9140.00
2017-09-20T11:46:17.949Z,9608.00
2017-09-20T11:47:17.952Z,9476.00
2017-09-20T11:48:17.955Z,10924.00
2017-09-20T11:49:17.960Z,11676.00
2017-09-20T11:50:17.968Z,9808.00
2017-09-20T11:51:17.972Z,8256.00
2017-09-20T11:52:17.977Z,7632.00
2017-09-20T11:53:17.978Z,6484.00
2017-09-20T11:54:17.984Z,5800.00
2017-09-20T11:55:17.987Z,6288.00
2017-09-20T11:56:17.990Z,8516.00
2017-09-20T11:57:17.997Z,11104.00
2017-09-20T11:58:17.995Z,12368.00
2017-09-20T11:59:17.996Z,10040.00
2017-09-20T12:00:18.000Z,8536.00
2017-09-20T12:01:18.009Z,8776.00
2017-09-20T12:02:18.013Z,9468.00
2017-09-20T12:03:18.015Z,10840.00
2017-09-20T12:04:18.017Z,11040.00
2017-09-20T12:05:18.023Z,11492.00
2017-09-20T12:06:18.021Z,11720.00
2017-09-20T12:07:18.024Z,10612.00
2017-09-20T12:08:18.027Z,9864.00
2017-09-20T12:09:18.029Z,8924.00
2017-09-20T12:10:18.033Z,8420.00
2017-09-20T12:11:18.035Z,8576.00
2017-09-20T12:12:18.038Z,7716.00
2017-09-20T12:13:18.043Z,7812.00
2017-09-20T12:14:18.049Z,6656.00
2017-09-20T12:15:18.053Z,8608.00
2017-09-20T12:16:18.056Z,9892.00
2017-09-20T12:17:18.059Z,10616.00
2017-09-20T12:18:18.065Z,9880.00
2017-09-20T12:19:18.065Z,8764.00
2017-09-20T12:20:18.070Z,8160.00
2017-09-20T12:21:18.072Z,7760.00
2017-09-20T12:22:18.071Z,7920.00
2017-09-20T12:23:18.075Z,8420.00
2017-09-20T12:24:18.076Z,8968.00
2017-09-20T12:25:18.079Z,9252.00
2017-09-20T12:26:18.083Z,8576.00
2017-09-20T12:27:18.085Z,8064.00
2017-09-20T12:28:18.088Z,8060.00
2017-09-20T12:29:18.091Z,8152.00
2017-09-20T12:30:18.098Z,8360.00
2017-09-20T12:31:18.103Z,8480.00